Rochester, NY

3:00 AM EDT on November 01, 2014 (GMT -0400)
Dansville Municipal | Change Station
CLOSE
Current Station
Airport
Location: Dansville,
Elevation: 659 ft
Nearby Weather Stations

Elev 659 ft 42.57 °N, 77.71 °W | Updated 6 minutes ago

Rain
Rain
42 °F
Feels Like 38 °F
N
6
Wind Variable Wind from NNW

Today
High -- | Low -- °F
--% Chance of Precip.
Yesterday
High -- | Low -- °F
Precip. -- in
7:45 AM 6:02 PM
Waxing Gibbous, 63% visible
Pressure 30.00 in
Visibility 10.0 miles
Clouds Scattered Clouds 900 ft
Mostly Cloudy 2000 ft
Overcast 2500 ft
Windchill 38 °F
Dew Point 40 °F
Humidity 92%
Rainfall 0.02 in
Snow Depth Not available.
UV 0 out of 12
Pollen .10 out of 12
Air Quality Not available.
Flu Activity Not available.
METAR KDSV 010654Z AUTO 34005KT 10SM -RA SCT009 BKN020 OVC025 06/04 A2996 RMK AO2 SLP158 P0001 T00560044

More Conditions Fewer Conditions

Pressure 30.00 in
Visibility 10.0 miles
Clouds Scattered Clouds 900 ft
Mostly Cloudy 2000 ft
Overcast 2500 ft
Windchill 38 °F
Dew Point 40 °F
Humidity 92%
Rainfall 0.02 in
Snow Depth Not available.
UV 0 out of 12
Pollen .10 out of 12
Air Quality Not available.
Flu Activity Not available.
METAR KDSV 010654Z AUTO 34005KT 10SM -RA SCT009 BKN020 OVC025 06/04 A2996 RMK AO2 SLP158 P0001 T00560044

More Conditions Fewer Conditions

10-Day Weather Forecast

Almanac

Astronomy

Nov. 01, 2014 Rise Set
Actual Time
Civil Twilight
Nautical Twilight
Astronomical Twilight
Moon
Length of Visible Light
Length of Day
Tomorrow will be .
, % of the Moon is Illuminated

Today's Extremes

State Highs State Lows

Community

WunderPhotos

Upload Photos

1,766,866 photos uploaded!

WunderBlogs® & News

Nearby

Air Quality

  Air Quality AQ Index Pollutant
Not available.

Snow Depth

Station Depth Elevation

Earthquake Activity

City Distance Mag. Time & Date
Minimum magnitude displayed is 2.5.

Coastal Water Temperatures

Place Temperature

Nearby Weather Stations